Time;durP1;ratioP1;P1;durP2;ratioP2;P2;SDS_P1;SDS_P2;PMS_P1;PMS_P2;Temp;Humidity;BMP_temperature;BMP_pressure;BME280_temperature;BME280_humidity;BME280_pressure;Samples;Min_cycle;Max_cycle;Signal;HPM_P1;HPM_P2
2022/12/23 00:02:02;;;;;;;0.20;0.20;;;;;;;7.39;100.00;95349.94;4947679;28;20051;-73
2022/12/23 00:04:48;;;;;;;0.20;0.20;;;;;;;7.37;100.00;95351.22;4943700;28;20606;-73
2022/12/23 00:07:34;;;;;;;0.17;0.17;;;;;;;7.36;100.00;95355.75;4943312;28;20038;-74
2022/12/23 00:10:19;;;;;;;0.10;0.10;;;;;;;7.36;100.00;95354.97;4945424;28;20157;-71
2022/12/23 00:16:13;;;;;;;0.20;0.20;;;;;;;7.36;100.00;95357.63;4943416;28;20521;-74
2022/12/23 00:18:59;;;;;;;0.20;0.20;;;;;;;7.40;100.00;95348.88;4942393;28;20126;-73
2022/12/23 00:21:44;;;;;;;0.20;0.20;;;;;;;7.40;100.00;95351.53;4942888;28;20643;-71
2022/12/23 00:24:30;;;;;;;0.20;0.20;;;;;;;7.41;100.00;95350.47;4943455;28;20542;-73
2022/12/23 00:27:16;;;;;;;0.10;0.10;;;;;;;7.36;100.00;95357.63;4943955;28;20078;-72
2022/12/23 00:30:04;;;;;;;0.10;0.10;;;;;;;7.38;100.00;95361.63;4942191;28;20050;-72
2022/12/23 00:32:50;;;;;;;0.10;0.10;;;;;;;7.33;100.00;95350.97;4943053;28;20129;-73
2022/12/23 00:35:36;;;;;;;0.20;0.20;;;;;;;7.32;100.00;95362.66;4945920;28;20046;-75
2022/12/23 00:44:32;;;;;;;0.10;0.10;;;;;;;7.34;100.00;95335.78;4942820;28;20656;-72
2022/12/23 00:50:21;;;;;;;0.20;0.20;;;;;;;7.37;100.00;95351.22;4942554;28;20046;-75
2022/12/23 00:53:07;;;;;;;0.20;0.20;;;;;;;7.38;100.00;95350.97;4941604;28;20371;-73
2022/12/23 00:55:53;;;;;;;0.10;0.10;;;;;;;7.39;100.00;95359.75;4942322;28;20038;-74
2022/12/23 00:58:39;;;;;;;0.20;0.20;;;;;;;7.32;100.00;95364.53;4945393;28;20687;-73
2022/12/23 01:07:35;;;;;;;0.17;0.17;;;;;;;7.38;100.00;95371.47;4961666;28;20414;-75
2022/12/23 01:10:21;;;;;;;0.13;0.13;;;;;;;7.42;100.00;95376.03;4963823;28;20311;-71
2022/12/23 01:13:07;;;;;;;0.20;0.20;;;;;;;7.39;100.00;95379.22;4974598;28;20034;-73
2022/12/23 01:16:15;;;;;;;0.20;0.20;;;;;;;7.43;100.00;95384.81;4961888;28;20117;-76
2022/12/23 01:19:01;;;;;;;0.20;0.20;;;;;;;7.36;100.00;95385.03;4961191;28;20603;-74
2022/12/23 01:21:47;;;;;;;0.20;0.20;;;;;;;7.36;100.00;95395.69;4964371;28;20058;-71
2022/12/23 01:24:33;;;;;;;0.10;0.10;;;;;;;7.37;100.00;95391.97;4974656;28;20435;-74
2022/12/23 01:27:19;;;;;;;0.10;0.10;;;;;;;7.38;100.00;95409.53;4962937;28;20039;-74
2022/12/23 01:30:05;;;;;;;0.17;0.17;;;;;;;7.43;100.00;95412.25;4962121;28;20165;-72
2022/12/23 01:32:51;;;;;;;0.17;0.17;;;;;;;7.44;100.00;95411.19;4962352;28;20692;-75
2022/12/23 01:35:37;;;;;;;0.20;0.20;;;;;;;7.40;100.00;95409.31;4963097;28;20046;-73
2022/12/23 01:38:23;;;;;;;0.20;0.20;;;;;;;7.37;100.00;95421.22;4964005;28;20501;-75
2022/12/23 01:42:42;;;;;;;0.20;0.20;;;;;;;7.41;100.00;95425.00;4959999;28;20522;-74
2022/12/23 01:45:00;;;;;;;0.20;0.20;;;;;;;7.45;100.00;95427.94;4961078;28;20042;-75
2022/12/23 01:47:51;;;;;;;0.20;0.20;;;;;;;7.36;100.00;95438.25;4963329;28;20079;-72
2022/12/23 01:50:49;;;;;;;0.17;0.17;;;;;;;7.33;100.00;95440.63;4964186;28;20046;-74
2022/12/23 01:53:42;;;;;;;0.10;0.10;;;;;;;7.42;100.00;95439.91;4964328;28;20642;-72
2022/12/23 01:56:38;;;;;;;0.20;0.20;;;;;;;7.36;100.00;95440.94;4967172;28;20332;-74
2022/12/23 02:05:38;;;;;;;0.10;0.10;;;;;;;7.36;100.00;95443.59;4964999;28;20134;-70
2022/12/23 02:11:46;;;;;;;0.20;0.20;;;;;;;7.42;100.00;95447.91;4967625;28;20038;-71
2022/12/23 02:18:28;;;;;;;0.13;0.13;;;;;;;7.41;100.00;95446.31;4964749;28;20042;-72
2022/12/23 02:21:33;;;;;;;0.20;0.20;;;;;;;7.48;100.00;95456.75;4966795;28;20684;-71
2022/12/23 02:24:47;;;;;;;0.10;0.10;;;;;;;7.43;100.00;95446.84;4963644;28;20295;-74
2022/12/23 02:27:47;;;;;;;0.10;0.10;;;;;;;7.49;100.00;95456.50;4964257;28;20038;-71
2022/12/23 02:30:59;;;;;;;0.20;0.20;;;;;;;7.46;100.00;95461.50;4963313;28;21090;-71
2022/12/23 02:34:19;;;;;;;0.10;0.10;;;;;;;7.49;100.00;95458.34;4946926;28;20034;-73
2022/12/23 02:37:28;;;;;;;0.20;0.20;;;;;;;7.50;100.00;95455.44;4936749;28;20149;-73
2022/12/23 02:40:30;;;;;;;0.20;0.20;;;;;;;7.49;100.00;95456.50;4944641;28;20063;-73
2022/12/23 02:43:31;;;;;;;0.10;0.10;;;;;;;7.47;100.00;95461.28;4945205;28;20163;-75
2022/12/23 02:46:40;;;;;;;0.20;0.20;;;;;;;7.50;100.00;95462.63;4943931;28;20352;-74
2022/12/23 02:49:54;;;;;;;0.20;0.20;;;;;;;7.42;100.00;95452.44;4944334;28;20050;-72
2022/12/23 02:52:43;;;;;;;0.20;0.20;;;;;;;7.37;100.00;95450.50;4944886;28;20171;-75
2022/12/23 02:55:34;;;;;;;0.10;0.10;;;;;;;7.40;100.00;95455.34;4946993;28;20054;-72
2022/12/23 02:58:25;;;;;;;0.20;0.20;;;;;;;7.39;100.00;95456.41;4945054;28;20090;-73
2022/12/23 03:01:14;;;;;;;0.20;0.20;;;;;;;7.37;100.00;95453.16;4925701;28;20039;-71
2022/12/23 03:04:00;;;;;;;0.20;0.20;;;;;;;7.41;100.00;95456.94;4926056;28;20290;-75
2022/12/23 03:06:50;;;;;;;0.10;0.10;;;;;;;7.39;100.00;95461.72;4926082;28;20128;-72
2022/12/23 03:10:07;;;;;;;0.20;0.20;;;;;;;7.47;100.00;95469.25;4925537;28;20500;-72
2022/12/23 03:13:08;;;;;;;0.20;0.20;;;;;;;7.44;100.00;95476.94;4916959;28;20094;-73
2022/12/23 03:16:03;;;;;;;0.28;0.28;;;;;;;7.43;100.00;95470.81;4926352;29;20138;-74
2022/12/23 03:19:05;;;;;;;0.20;0.20;;;;;;;7.37;100.00;95481.66;4925802;29;20615;-71
2022/12/23 03:22:15;;;;;;;0.20;0.20;;;;;;;7.38;100.00;95472.59;4927369;28;20040;-71
2022/12/23 03:25:21;;;;;;;0.20;0.20;;;;;;;7.37;100.00;95482.44;4925032;29;20502;-74
2022/12/23 03:28:12;;;;;;;0.20;0.20;;;;;;;7.37;100.00;95487.78;4925498;28;20047;-71
2022/12/23 03:31:01;;;;;;;0.20;0.20;;;;;;;7.36;100.00;95488.81;4925939;28;20043;-74
2022/12/23 03:33:53;;;;;;;0.20;0.20;;;;;;;7.36;100.00;95512.78;4926598;29;20039;-72
2022/12/23 03:36:45;;;;;;;0.20;0.20;;;;;;;7.30;100.00;95494.34;4925751;28;20180;-73
2022/12/23 03:39:37;;;;;;;0.20;0.20;;;;;;;7.33;100.00;95504.50;4923477;29;20476;-74
2022/12/23 03:42:35;;;;;;;0.17;0.17;;;;;;;7.28;100.00;95512.44;4923169;29;20158;-74
2022/12/23 03:45:25;;;;;;;0.20;0.20;;;;;;;7.25;100.00;95505.75;4924249;29;20333;-73
2022/12/23 03:48:25;;;;;;;0.20;0.20;;;;;;;7.33;100.00;95512.50;4922518;28;20054;-72
2022/12/23 03:51:19;;;;;;;0.10;0.10;;;;;;;7.31;100.00;95510.06;4923522;28;20043;-73
2022/12/23 03:54:14;;;;;;;0.20;0.20;;;;;;;7.37;100.00;95516.25;4924823;28;20530;-74
2022/12/23 03:57:03;;;;;;;0.10;0.10;;;;;;;7.39;100.00;95514.97;4925164;28;20047;-74
2022/12/23 03:59:50;;;;;;;0.20;0.20;;;;;;;7.35;100.00;95521.81;4930536;28;20146;-73
2022/12/23 04:02:42;;;;;;;0.20;0.20;;;;;;;7.41;100.00;95512.84;4942885;28;20050;-74
2022/12/23 04:05:35;;;;;;;0.20;0.20;;;;;;;7.41;100.00;95512.84;4943947;28;20053;-71
2022/12/23 04:08:29;;;;;;;0.20;0.20;;;;;;;7.44;100.00;95508.88;4943691;28;20274;-71
2022/12/23 04:11:15;;;;;;;0.15;0.15;;;;;;;7.43;100.00;95516.06;4957114;28;20050;-73
2022/12/23 04:14:01;;;;;;;0.20;0.20;;;;;;;7.43;100.00;95516.06;4942513;28;20045;-73
2022/12/23 04:16:52;;;;;;;0.20;0.20;;;;;;;7.48;100.00;95524.09;4943392;28;20043;-72
2022/12/23 04:19:38;;;;;;;0.10;0.10;;;;;;;7.49;100.00;95525.69;4942674;28;20506;-72
2022/12/23 04:22:24;;;;;;;0.20;0.20;;;;;;;7.50;100.00;95527.31;4943019;28;20038;-74
2022/12/23 04:25:12;;;;;;;0.10;0.10;;;;;;;7.46;100.00;95528.84;4943295;28;20050;-70
2022/12/23 04:27:58;;;;;;;0.20;0.20;;;;;;;7.45;100.00;95521.91;4943545;28;20042;-74
2022/12/23 04:30:43;;;;;;;0.10;0.10;;;;;;;7.37;100.00;95516.25;4945531;28;20688;-73
2022/12/23 04:33:29;;;;;;;0.20;0.20;;;;;;;7.36;100.00;95518.09;4942785;28;20276;-72
2022/12/23 04:36:15;;;;;;;0.13;0.13;;;;;;;7.35;100.00;95518.38;4942906;28;20274;-74
2022/12/23 04:39:01;;;;;;;0.10;0.10;;;;;;;7.37;100.00;95516.25;4945210;28;20058;-74
2022/12/23 04:41:48;;;;;;;0.17;0.17;;;;;;;7.36;100.00;95515.44;4944659;28;20123;-72
2022/12/23 04:44:34;;;;;;;0.10;0.10;;;;;;;7.36;100.00;95504.78;4942563;28;20134;-74
2022/12/23 04:47:19;;;;;;;0.13;0.13;;;;;;;7.41;100.00;95509.38;4943062;28;20062;-74
2022/12/23 04:50:12;;;;;;;0.10;0.10;;;;;;;7.36;100.00;95514.66;4945257;28;20121;-73
2022/12/23 04:52:58;;;;;;;0.20;0.20;;;;;;;7.25;100.00;95514.53;4945293;28;20071;-75
2022/12/23 04:55:48;;;;;;;0.15;0.15;;;;;;;7.33;100.00;95497.31;4944917;28;20051;-73
2022/12/23 04:58:34;;;;;;;0.20;0.20;;;;;;;7.34;100.00;95512.25;4942225;28;20365;-74
2022/12/23 05:01:20;;;;;;;0.13;0.13;;;;;;;7.38;100.00;95521.31;4951274;28;20923;-74
2022/12/23 05:04:06;;;;;;;0.20;0.20;;;;;;;7.40;100.00;95521.09;4963232;28;20120;-73
2022/12/23 05:06:52;;;;;;;0.10;0.10;;;;;;;7.32;100.00;95516.22;4965764;28;20124;-72
2022/12/23 05:09:38;;;;;;;0.10;0.10;;;;;;;7.32;100.00;95524.19;4963638;28;20038;-73
2022/12/23 05:12:24;;;;;;;0.20;0.20;;;;;;;7.32;100.00;95518.88;4964157;28;20332;-74
2022/12/23 05:15:10;;;;;;;0.10;0.10;;;;;;;7.21;100.00;95516.09;4962859;28;20144;-74
2022/12/23 05:17:56;;;;;;;0.20;0.20;;;;;;;7.21;100.00;95521.41;4963038;28;20038;-74
2022/12/23 05:20:43;;;;;;;0.20;0.20;;;;;;;7.25;100.00;95530.50;4965140;28;20597;-72
2022/12/23 05:23:28;;;;;;;0.10;0.10;;;;;;;7.28;100.00;95531.84;4964671;28;20494;-73
2022/12/23 05:26:14;;;;;;;0.20;0.20;;;;;;;7.30;100.00;95536.94;4964748;28;20586;-72
2022/12/23 05:29:00;;;;;;;0.10;0.10;;;;;;;7.30;100.00;95547.56;4963993;28;20123;-74
2022/12/23 05:31:46;;;;;;;0.13;0.13;;;;;;;7.28;100.00;95539.03;4954762;28;20313;-73
2022/12/23 05:34:32;;;;;;;0.10;0.10;;;;;;;7.32;100.00;95535.66;4948265;28;20121;-73
2022/12/23 05:37:17;;;;;;;0.20;0.20;;;;;;;7.35;100.00;95544.97;4948625;28;20379;-74
2022/12/23 05:40:04;;;;;;;0.10;0.10;;;;;;;7.33;100.00;95547.09;4960622;28;20141;-74
2022/12/23 05:42:50;;;;;;;0.10;0.10;;;;;;;7.32;100.00;95545.50;4960361;28;20046;-74
2022/12/23 05:45:36;;;;;;;0.10;0.10;;;;;;;7.30;100.00;95552.91;4945599;28;20070;-73
2022/12/23 05:48:22;;;;;;;0.20;0.20;;;;;;;7.25;100.00;95540.34;4949095;28;20105;-72
2022/12/23 05:51:07;;;;;;;0.15;0.15;;;;;;;7.23;100.00;95542.44;4947898;28;20133;-73
2022/12/23 05:53:53;;;;;;;0.20;0.20;;;;;;;7.32;100.00;95561.47;4947307;28;20452;-75
2022/12/23 05:56:39;;;;;;;0.20;0.20;;;;;;;7.26;100.00;95557.94;4949216;28;20549;-76
2022/12/23 05:59:25;;;;;;;0.10;0.10;;;;;;;7.27;100.00;95559.53;4946135;28;20596;-75
2022/12/23 06:02:11;;;;;;;0.20;0.20;;;;;;;7.26;100.00;95555.25;4965082;28;20318;-73
2022/12/23 06:04:57;;;;;;;0.13;0.13;;;;;;;7.25;100.00;95556.31;4968661;28;20038;-75
2022/12/23 06:07:43;;;;;;;0.20;0.20;;;;;;;7.28;100.00;95563.00;4964121;28;20129;-73
2022/12/23 06:10:28;;;;;;;0.20;0.20;;;;;;;7.25;100.00;95564.31;4966326;28;20366;-74
2022/12/23 06:13:16;;;;;;;0.20;0.20;;;;;;;7.23;100.00;95575.16;4966541;28;20161;-75
2022/12/23 06:16:02;;;;;;;0.20;0.20;;;;;;;7.19;100.00;95573.28;4967101;28;20046;-76
2022/12/23 06:18:48;;;;;;;0.20;0.20;;;;;;;7.20;100.00;95585.53;4967592;28;20133;-71
2022/12/23 06:21:34;;;;;;;0.10;0.10;;;;;;;7.14;100.00;95586.50;4967249;28;20038;-72
2022/12/23 06:24:20;;;;;;;0.28;0.28;;;;;;;7.14;100.00;95581.19;4967623;28;20243;-74
2022/12/23 06:27:06;;;;;;;0.10;0.10;;;;;;;7.11;100.00;95592.34;4966776;28;20496;-75
2022/12/23 06:29:52;;;;;;;0.13;0.13;;;;;;;7.07;100.00;95586.69;4967882;28;20054;-73
2022/12/23 06:32:37;;;;;;;0.10;0.10;;;;;;;7.14;100.00;95597.94;4967321;28;20552;-74
2022/12/23 06:35:23;;;;;;;0.10;0.10;;;;;;;7.02;100.00;95591.16;4968075;28;20113;-74
2022/12/23 06:38:09;;;;;;;0.20;0.20;;;;;;;7.06;100.00;95603.69;4965434;28;20482;-74
2022/12/23 06:40:55;;;;;;;0.20;0.20;;;;;;;7.05;100.00;95603.94;4966367;28;20101;-73
2022/12/23 06:43:41;;;;;;;0.20;0.20;;;;;;;7.08;100.00;95598.97;4965308;28;20542;-74
2022/12/23 06:46:27;;;;;;;0.20;0.20;;;;;;;7.12;100.00;95593.94;4967769;28;20045;-74
2022/12/23 06:49:12;;;;;;;0.13;0.13;;;;;;;7.07;100.00;95585.88;4967545;28;20527;-73
2022/12/23 06:51:58;;;;;;;0.20;0.20;;;;;;;7.04;100.00;95595.16;4967264;28;20605;-74
2022/12/23 06:54:44;;;;;;;0.20;0.20;;;;;;;7.02;100.00;95581.31;4966450;28;20290;-71
2022/12/23 06:57:30;;;;;;;0.20;0.20;;;;;;;7.13;100.00;95587.56;4968841;28;20053;-74
2022/12/23 07:00:16;;;;;;;0.20;0.20;;;;;;;7.09;100.00;95573.97;4964388;28;20137;-72
2022/12/23 07:03:02;;;;;;;0.20;0.20;;;;;;;7.03;100.00;95580.25;4967409;28;20656;-74
2022/12/23 07:05:49;;;;;;;0.20;0.20;;;;;;;7.10;100.00;95586.22;4979281;28;20046;-73
2022/12/23 07:08:35;;;;;;;0.15;0.15;;;;;;;7.12;100.00;95586.75;4966025;28;20117;-74
2022/12/23 07:11:21;;;;;;;0.20;0.20;;;;;;;7.12;100.00;95584.09;4968298;28;20133;-72
2022/12/23 07:14:07;;;;;;;0.10;0.10;;;;;;;7.11;100.00;95597.66;4965234;28;20695;-73
2022/12/23 07:16:53;;;;;;;0.20;0.20;;;;;;;7.10;100.00;95596.03;4966916;28;20487;-72
2022/12/23 07:19:40;;;;;;;0.20;0.20;;;;;;;7.10;100.00;95612.00;4967289;28;20453;-74
2022/12/23 07:22:26;;;;;;;0.10;0.10;;;;;;;7.07;100.00;95601.84;4966948;28;20042;-73
2022/12/23 07:25:12;;;;;;;0.10;0.10;;;;;;;7.13;100.00;95588.38;4967505;28;20042;-72
2022/12/23 07:27:58;;;;;;;0.20;0.20;;;;;;;7.17;100.00;95591.34;4979221;28;20867;-74
2022/12/23 07:30:44;;;;;;;0.20;0.20;;;;;;;7.10;100.00;95594.19;4960548;28;20043;-73
2022/12/23 07:33:30;;;;;;;0.20;0.20;;;;;;;7.02;100.00;95605.25;4948778;28;20547;-73
2022/12/23 07:36:16;;;;;;;0.10;0.10;;;;;;;7.06;100.00;95606.38;4947198;28;20273;-73
2022/12/23 07:39:02;;;;;;;0.10;0.10;;;;;;;7.03;100.00;95627.34;4946655;28;20051;-72
2022/12/23 07:41:48;;;;;;;0.10;0.10;;;;;;;7.08;100.00;95630.06;4947831;28;20050;-75
2022/12/23 07:44:34;;;;;;;0.10;0.10;;;;;;;6.93;100.00;95643.97;4946471;28;20180;-73
2022/12/23 07:47:22;;;;;;;0.10;0.10;;;;;;;6.91;100.00;95646.84;4948986;28;20687;-75
2022/12/23 07:50:09;;;;;;;0.15;0.15;;;;;;;6.86;100.00;95649.47;4947525;28;20046;-72
2022/12/23 07:52:55;;;;;;;0.20;0.20;;;;;;;6.93;100.00;95652.75;4959732;28;20047;-74
2022/12/23 07:55:40;;;;;;;0.10;0.10;;;;;;;6.98;100.00;95654.66;4958067;28;20259;-75
2022/12/23 07:58:28;;;;;;;0.10;0.10;;;;;;;7.04;100.00;95645.72;4948925;28;20043;-76
2022/12/23 08:01:15;;;;;;;0.10;0.10;;;;;;;7.04;100.00;95626.28;4954600;28;20248;-75
2022/12/23 08:04:03;;;;;;;0.13;0.13;;;;;;;7.10;100.00;95633.28;4965659;28;20046;-75
2022/12/23 08:06:49;;;;;;;0.10;0.10;;;;;;;7.12;100.00;95632.00;4965006;28;20576;-75
2022/12/23 08:09:37;;;;;;;0.20;0.20;;;;;;;7.19;100.00;95637.13;4968078;28;20042;-74
2022/12/23 08:12:24;;;;;;;0.10;0.10;;;;;;;7.25;100.00;95636.16;4968840;28;20052;-75
2022/12/23 08:15:13;;;;;;;0.10;0.10;;;;;;;7.28;100.00;95632.97;4966406;28;20121;-75
2022/12/23 08:17:59;;;;;;;0.20;0.20;;;;;;;7.39;100.00;95631.25;4966843;28;20057;-75
2022/12/23 08:20:55;;;;;;;0.10;0.10;;;;;;;7.39;100.00;95634.72;4966637;28;20069;-75
2022/12/23 08:23:42;;;;;;;0.10;0.10;;;;;;;7.43;100.00;95632.38;4966786;28;20136;-73
2022/12/23 08:26:28;;;;;;;0.20;0.20;;;;;;;7.42;100.00;95636.09;4968113;28;20053;-74
2022/12/23 08:29:14;;;;;;;0.20;0.20;;;;;;;7.23;100.00;95627.59;4966775;28;20042;-74
2022/12/23 08:32:00;;;;;;;0.15;0.15;;;;;;;7.25;100.00;95639.63;4951400;28;20051;-76
2022/12/23 08:34:45;;;;;;;0.10;0.10;;;;;;;7.40;100.00;95632.88;4946426;28;20373;-75
2022/12/23 08:37:31;;;;;;;0.20;0.20;;;;;;;7.26;100.00;95641.22;4946766;28;20387;-75
2022/12/23 08:40:17;;;;;;;0.20;0.20;;;;;;;7.39;100.00;95645.38;4947673;28;20529;-72
2022/12/23 08:43:03;;;;;;;0.20;0.20;;;;;;;7.42;100.00;95641.41;4959334;28;20047;-77
2022/12/23 08:45:49;;;;;;;0.20;0.20;;;;;;;7.54;100.00;95636.75;4945736;28;20503;-74
2022/12/23 08:48:36;;;;;;;0.10;0.10;;;;;;;7.35;100.00;95617.63;4947201;28;20065;-72
2022/12/23 08:51:23;;;;;;;0.10;0.10;;;;;;;7.33;100.00;95618.94;4945418;28;20041;-75
2022/12/23 08:54:09;;;;;;;0.20;0.20;;;;;;;7.28;100.00;95613.56;4948100;28;20061;-75
2022/12/23 08:56:55;;;;;;;0.10;0.10;;;;;;;7.23;100.00;95615.09;4947438;28;20321;-74
2022/12/23 08:59:41;;;;;;;0.20;0.20;;;;;;;7.37;100.00;95612.06;4946124;28;20081;-75
2022/12/23 09:02:27;;;;;;;0.20;0.20;;;;;;;7.29;100.00;95623.94;4965447;28;20049;-75
2022/12/23 09:05:13;;;;;;;0.20;0.20;;;;;;;7.32;100.00;95623.47;4964781;28;20133;-72
2022/12/23 09:07:59;;;;;;;0.10;0.10;;;;;;;7.34;100.00;95621.34;4964927;28;20265;-75
2022/12/23 09:10:45;;;;;;;0.10;0.10;;;;;;;7.36;100.00;95616.59;4965396;28;20077;-75
2022/12/23 09:13:31;;;;;;;0.20;0.20;;;;;;;7.37;100.00;95622.72;4965272;28;20351;-75
2022/12/23 09:16:17;;;;;;;0.10;0.10;;;;;;;7.39;100.00;95620.59;4964004;28;20038;-75
2022/12/23 09:19:03;;;;;;;0.10;0.10;;;;;;;7.24;100.00;95622.03;4961267;28;20038;-73
2022/12/23 09:21:49;;;;;;;0.20;0.20;;;;;;;7.19;100.00;95621.97;4964527;28;20038;-74
2022/12/23 09:24:36;;;;;;;0.20;0.20;;;;;;;7.12;100.00;95623.19;4963735;28;20137;-72
2022/12/23 09:27:22;;;;;;;0.20;0.20;;;;;;;7.28;100.00;95632.19;4965836;28;20240;-75
2022/12/23 09:30:09;;;;;;;0.20;0.20;;;;;;;7.29;100.00;95636.44;4964561;28;20050;-73
2022/12/23 09:32:54;;;;;;;0.20;0.20;;;;;;;7.29;100.00;95623.94;4963575;28;20562;-72
2022/12/23 09:35:40;;;;;;;0.15;0.15;;;;;;;7.44;100.00;95640.09;4965272;28;20054;-75
2022/12/23 09:38:26;;;;;;;0.20;0.20;;;;;;;7.44;100.00;95647.28;4966414;28;20053;-74
2022/12/23 09:41:42;;;;;;;0.20;0.20;;;;;;;7.35;100.00;95625.63;4962267;28;20043;-75
2022/12/23 09:44:48;;;;;;;0.20;0.20;;;;;;;7.37;100.00;95631.50;4965512;28;20169;-73
2022/12/23 09:47:39;;;;;;;0.10;0.10;;;;;;;7.41;100.00;95631.81;4966887;28;20464;-73
2022/12/23 09:50:29;;;;;;;0.10;0.10;;;;;;;7.44;100.00;95616.16;4965535;28;20093;-72
2022/12/23 09:53:19;;;;;;;0.10;0.10;;;;;;;7.61;100.00;95626.72;4964038;28;20048;-72
2022/12/23 09:56:34;;;;;;;0.20;0.20;;;;;;;7.64;100.00;95628.91;4963696;28;20882;-72
2022/12/23 09:59:54;;;;;;;0.20;0.20;;;;;;;7.58;100.00;95621.91;4963393;28;20038;-72
2022/12/23 10:03:24;;;;;;;0.13;0.13;;;;;;;7.49;100.00;95610.88;4962630;28;20050;-73
2022/12/23 10:06:17;;;;;;;0.20;0.20;;;;;;;7.44;100.00;95602.84;4963816;28;20472;-73
2022/12/23 10:09:05;;;;;;;0.17;0.17;;;;;;;7.36;100.00;95605.94;4965218;28;20042;-73
2022/12/23 10:11:52;;;;;;;0.20;0.20;;;;;;;7.36;100.00;95602.47;4966150;28;20382;-74
2022/12/23 10:14:40;;;;;;;0.10;0.10;;;;;;;7.22;100.00;95594.06;4964068;28;20152;-72
2022/12/23 10:17:33;;;;;;;0.15;0.15;;;;;;;7.26;100.00;95584.53;4967735;28;20038;-73
2022/12/23 10:20:33;;;;;;;0.20;0.20;;;;;;;7.32;100.00;95588.88;4967999;28;20066;-74
2022/12/23 10:23:49;;;;;;;0.13;0.13;;;;;;;7.29;100.00;95591.22;4967884;28;20247;-73
2022/12/23 10:26:45;;;;;;;0.20;0.20;;;;;;;7.35;100.00;95607.00;4964312;28;20058;-71
2022/12/23 10:29:32;;;;;;;0.10;0.10;;;;;;;7.31;100.00;95607.72;4967623;28;20558;-74
2022/12/23 10:32:21;;;;;;;0.20;0.20;;;;;;;7.28;100.00;95587.75;4960162;28;20042;-73
2022/12/23 10:35:32;;;;;;;0.22;0.22;;;;;;;7.22;100.00;95597.50;4948336;28;20038;-72
2022/12/23 10:38:45;;;;;;;0.10;0.10;;;;;;;7.34;100.00;95592.09;4946263;28;20577;-70
2022/12/23 10:41:53;;;;;;;0.20;0.20;;;;;;;7.33;100.00;95565.72;4950647;28;20228;-73
2022/12/23 10:45:04;;;;;;;0.20;0.20;;;;;;;7.21;100.00;95560.50;4949053;28;20252;-71
2022/12/23 10:48:14;;;;;;;0.10;0.10;;;;;;;7.24;100.00;95554.72;4951133;28;20062;-74
2022/12/23 10:51:04;;;;;;;0.10;0.10;;;;;;;7.22;100.00;95536.31;4948388;28;20042;-75
2022/12/23 10:53:54;;;;;;;0.20;0.20;;;;;;;7.23;100.00;95531.78;4951281;28;20078;-74
2022/12/23 10:56:41;;;;;;;0.13;0.13;;;;;;;7.39;100.00;95514.97;4949519;28;20081;-73
2022/12/23 10:59:30;;;;;;;0.20;0.20;;;;;;;7.46;100.00;95526.19;4952425;28;20055;-75
2022/12/23 11:02:28;;;;;;;0.17;0.17;;;;;;;7.48;100.00;95515.31;4948758;28;20058;-73
2022/12/23 11:05:21;;;;;;;0.20;0.20;;;;;;;7.45;100.00;95507.81;4949414;28;20558;-73
2022/12/23 11:08:08;;;;;;;0.15;0.15;;;;;;;7.37;100.00;95505.59;4947117;28;20515;-74
2022/12/23 11:10:54;;;;;;;0.20;0.20;;;;;;;7.35;100.00;95505.06;4949865;28;20487;-74
2022/12/23 11:13:43;;;;;;;0.20;0.20;;;;;;;7.34;100.00;95508.78;4948898;28;20117;-73
2022/12/23 11:16:29;;;;;;;0.20;0.20;;;;;;;7.31;100.00;95499.41;4948744;28;20042;-73
2022/12/23 11:19:15;;;;;;;0.20;0.20;;;;;;;7.30;100.00;95478.38;4948586;28;20054;-73
2022/12/23 11:22:01;;;;;;;0.10;0.10;;;;;;;7.28;100.00;95478.63;4947039;28;20414;-74
2022/12/23 11:24:47;;;;;;;0.10;0.10;;;;;;;7.33;100.00;95468.06;4948152;28;20050;-74
2022/12/23 11:27:33;;;;;;;0.10;0.10;;;;;;;7.42;100.00;95461.22;4601742;28;10000807;-76
2022/12/23 11:30:22;;;;;;;0.10;0.10;;;;;;;7.37;100.00;95466.47;4604605;28;9999706;-74
2022/12/23 11:33:21;;;;;;;0.20;0.20;;;;;;;7.19;100.00;95472.16;4944462;28;20066;-72
2022/12/23 11:36:16;;;;;;;0.10;0.10;;;;;;;7.10;100.00;95468.34;4945217;28;20058;-75
2022/12/23 11:39:13;;;;;;;0.20;0.20;;;;;;;7.04;100.00;95456.84;4958245;28;20494;-74
2022/12/23 11:42:10;;;;;;;0.20;0.20;;;;;;;7.01;100.00;95454.69;4947376;28;20042;-74
2022/12/23 11:44:58;;;;;;;0.20;0.20;;;;;;;6.95;100.00;95450.38;4946973;28;20070;-72
2022/12/23 11:47:44;;;;;;;0.20;0.20;;;;;;;6.97;100.00;95467.69;4946118;28;20038;-70
2022/12/23 11:50:38;;;;;;;0.10;0.10;;;;;;;6.96;100.00;95457.28;4947421;28;20039;-72
2022/12/23 11:53:25;;;;;;;0.10;0.10;;;;;;;6.95;100.00;95453.03;4946015;28;20070;-72
2022/12/23 11:56:14;;;;;;;0.20;0.20;;;;;;;6.96;100.00;95465.28;4936068;28;20082;-73
2022/12/23 11:59:07;;;;;;;0.20;0.20;;;;;;;6.88;100.00;95458.53;4945445;28;20486;-73
2022/12/23 12:01:56;;;;;;;0.20;0.20;;;;;;;6.91;100.00;95442.06;4960591;28;20412;-73
2022/12/23 12:04:48;;;;;;;0.13;0.13;;;;;;;6.83;100.00;95425.75;4965380;28;20104;-73
2022/12/23 12:07:35;;;;;;;0.10;0.10;;;;;;;6.78;100.00;95429.19;4965075;28;20555;-73
2022/12/23 12:10:25;;;;;;;0.10;0.10;;;;;;;6.85;100.00;95429.78;4964628;28;20348;-74
2022/12/23 12:13:55;;;;;;;0.20;0.20;;;;;;;6.87;100.00;95437.50;4963575;28;20041;-73
2022/12/23 12:16:56;;;;;;;0.20;0.20;;;;;;;6.86;100.00;95417.28;4941527;28;20081;-73
2022/12/23 12:19:56;;;;;;;0.10;0.10;;;;;;;6.83;100.00;95410.59;4942053;28;20057;-73
2022/12/23 12:22:45;;;;;;;0.10;0.10;;;;;;;6.72;100.00;95384.16;4962336;28;20281;-73
2022/12/23 12:25:47;;;;;;;0.20;0.20;;;;;;;6.70;100.00;95379.91;4965334;28;20054;-74
2022/12/23 12:28:40;;;;;;;0.20;0.20;;;;;;;6.72;100.00;95379.66;4963512;28;20042;-74
2022/12/23 12:31:36;;;;;;;0.20;0.20;;;;;;;6.77;100.00;95373.56;4955156;28;20038;-74
2022/12/23 12:34:53;;;;;;;0.10;0.10;;;;;;;6.81;100.00;95372.84;4945488;28;20125;-69
2022/12/23 12:37:58;;;;;;;0.15;0.15;;;;;;;6.90;100.00;95359.88;4947033;28;20039;-72
2022/12/23 12:40:49;;;;;;;0.20;0.20;;;;;;;6.80;100.00;95349.16;4940089;28;20149;-71
2022/12/23 12:43:41;;;;;;;;;;;;;;;6.75;100.00;95347.25;4944029;28;20352;-73
2022/12/23 12:46:42;;;;;;;0.10;0.10;;;;;;;6.80;100.00;95349.16;4943104;28;19987;-75
2022/12/23 12:49:35;;;;;;;0.20;0.20;;;;;;;6.79;100.00;95339.56;4943631;28;20514;-75
2022/12/23 12:52:26;;;;;;;0.10;0.10;;;;;;;6.83;100.00;95322.06;4943207;28;20748;-72
2022/12/23 12:55:27;;;;;;;0.15;0.15;;;;;;;6.80;100.00;95310.06;4926420;28;20169;-72
2022/12/23 12:58:21;;;;;;;0.20;0.20;;;;;;;6.73;100.00;95298.03;4942956;28;20042;-72
2022/12/23 13:01:31;;;;;;;0.20;0.20;;;;;;;6.78;100.00;95298.91;4955343;28;20088;-72
2022/12/23 13:04:27;;;;;;;0.13;0.13;;;;;;;6.65;100.00;95292.13;4949653;28;20463;-74
2022/12/23 13:07:28;;;;;;;0.20;0.20;;;;;;;6.64;100.00;95311.00;4963123;28;20474;-74
2022/12/23 13:10:30;;;;;;;0.10;0.10;;;;;;;6.60;100.00;95304.56;4964943;28;20042;-74
2022/12/23 13:13:55;;;;;;;0.10;0.10;;;;;;;6.66;100.00;95292.91;4963847;28;20046;-71
2022/12/23 13:16:49;;;;;;;0.10;0.10;;;;;;;6.59;100.00;95285.16;4954853;28;20204;-74
2022/12/23 13:19:45;;;;;;;0.10;0.10;;;;;;;6.58;100.00;95280.09;4963845;28;20121;-75
2022/12/23 13:22:35;;;;;;;0.20;0.20;;;;;;;6.61;100.00;95284.88;4962717;28;20050;-75
2022/12/23 13:25:30;;;;;;;0.10;0.10;;;;;;;6.68;100.00;95278.31;4963319;28;20730;-75
2022/12/23 13:28:40;;;;;;;0.20;0.20;;;;;;;6.73;100.00;95287.41;4964367;28;20069;-72
2022/12/23 13:32:08;;;;;;;0.20;0.20;;;;;;;6.74;100.00;95281.81;4950148;28;20117;-76
2022/12/23 13:35:32;;;;;;;0.20;0.20;;;;;;;6.75;100.00;95272.00;4947306;28;20345;-74
2022/12/23 13:38:44;;;;;;;0.10;0.10;;;;;;;6.72;100.00;95233.44;4921659;29;20047;-74
2022/12/23 13:41:38;;;;;;;0.10;0.10;;;;;;;6.74;100.00;95238.50;4923034;29;20054;-75
2022/12/23 13:44:24;;;;;;;0.20;0.20;;;;;;;6.82;100.00;95238.81;4942014;28;20142;-75
2022/12/23 13:47:40;;;;;;;0.20;0.20;;;;;;;6.86;100.00;95192.06;4944268;28;20434;-73
2022/12/23 13:50:49;;;;;;;0.20;0.20;;;;;;;6.97;100.00;95222.97;4947605;28;20419;-75
2022/12/23 13:53:51;;;;;;;0.20;0.20;;;;;;;6.88;100.00;95215.75;4948104;28;20130;-73
2022/12/23 13:57:07;;;;;;;0.20;0.20;;;;;;;6.83;100.00;95208.50;4966564;28;20184;-72
2022/12/23 14:00:15;;;;;;;0.10;0.10;;;;;;;6.98;100.00;95210.47;4951753;28;20088;-72
2022/12/23 14:03:01;;;;;;;0.20;0.20;;;;;;;7.10;100.00;95215.63;4964974;28;20042;-73